KROC/ROC METAR and TAF weather

Enter ICAO airport designator
Station Type Date Time Source
KROC METAR 2021/08/02 02:35 UTC NOAA

KROC 020235Z 30003KT 10SM TS SCT012 BKN028 OVC065 17/16 A2992 RMK AO2 RAE11 TSB33 OCNL LTGICCC N TS N MOV SE P0011 T01670161 $


Station Type Date Time Source
KROC Decoded METAR 2021/08/02 02:35 UTC NOAA

GREATER ROCHESTER INTERNATIONAL , NY, United States (KROC) 43-07N 077-41W 178M
Aug 01, 2021 - 10:35 PM EDT / 2021.08.02 0235 UTC
Wind: from the WNW (300 degrees) at 3 MPH (3 KT):0
Visibility: 10 mile(s):0
Sky conditions: overcast
Weather: thunder; Lightning observed
Precipitation last hour: 0.11 inches
Temperature: 62.1 F (16.7 C)
Dew Point: 61.0 F (16.1 C)
Relative Humidity: 96%
Pressure (altimeter): 29.92 in. Hg (1013 hPa)
ob: KROC 020235Z 30003KT 10SM TS SCT012 BKN028 OVC065 17/16 A2992 RMK AO2 RAE11 TSB33 OCNL LTGICCC N TS N MOV SE P0011 T01670161
cycle: 2

Station Type Date Time Source
KROC TAF 2021/08/02 02:54 UTC NOAA

TAF
AMD KROC 020151Z 0202/0224 35008KT P6SM VCTS OVC020CB
TEMPO 0202/0203 3SM -TSRA BKN015CB
FM020400 31007KT P6SM OVC015
FM020800 31007KT P6SM SCT040
FM022000 27007KT P6SM FEW250

Example: see airport list